createdAt,value
2018-12-30T00:01:00.954Z,0
2018-12-30T00:02:02.333Z,0
2018-12-30T00:03:03.710Z,0
2018-12-30T00:04:05.057Z,0
2018-12-30T00:05:06.402Z,0
2018-12-30T00:06:07.749Z,0
2018-12-30T00:07:09.096Z,0
2018-12-30T00:08:10.474Z,0
2018-12-30T00:09:11.851Z,0
2018-12-30T00:10:13.200Z,0
2018-12-30T00:11:14.698Z,0
2018-12-30T00:12:16.085Z,0
2018-12-30T00:13:17.510Z,0
2018-12-30T00:14:18.886Z,0
2018-12-30T00:15:20.231Z,0
2018-12-30T00:16:21.610Z,0
2018-12-30T00:17:22.991Z,0
2018-12-30T00:18:24.332Z,0
2018-12-30T00:19:25.717Z,0
2018-12-30T00:20:27.101Z,0
2018-12-30T00:21:28.489Z,0
2018-12-30T00:22:29.868Z,0
2018-12-30T00:23:31.251Z,0
2018-12-30T00:24:32.632Z,0
2018-12-30T00:25:34.013Z,0
2018-12-30T00:26:35.392Z,0
2018-12-30T00:27:36.778Z,0
2018-12-30T00:28:38.128Z,0
2018-12-30T00:29:39.504Z,0
2018-12-30T00:30:40.884Z,0
2018-12-30T00:31:42.272Z,0
2018-12-30T00:32:43.654Z,0
2018-12-30T00:33:45.040Z,0
2018-12-30T00:34:46.426Z,0
2018-12-30T00:35:47.767Z,0
2018-12-30T00:36:49.144Z,0
2018-12-30T00:37:50.523Z,0
2018-12-30T00:38:51.871Z,0
2018-12-30T00:39:53.256Z,0
2018-12-30T00:40:54.639Z,0
2018-12-30T00:41:56.025Z,0
2018-12-30T00:42:57.411Z,0
2018-12-30T00:43:58.792Z,0
2018-12-30T00:45:00.253Z,0
2018-12-30T00:46:01.515Z,0
2018-12-30T00:47:02.899Z,0
2018-12-30T00:48:04.310Z,0
2018-12-30T00:49:05.745Z,0
2018-12-30T00:50:07.133Z,0
2018-12-30T00:51:08.519Z,0
2018-12-30T00:52:09.900Z,0
2018-12-30T00:53:11.281Z,0
2018-12-30T00:54:12.661Z,0
2018-12-30T00:55:14.042Z,0
2018-12-30T00:56:15.426Z,0
2018-12-30T00:57:16.809Z,0
2018-12-30T00:58:18.159Z,0
2018-12-30T00:59:19.535Z,0
2018-12-30T01:00:20.918Z,0
2018-12-30T01:01:22.296Z,0
2018-12-30T01:02:23.762Z,0
2018-12-30T01:03:25.189Z,0
2018-12-30T01:04:26.569Z,0
2018-12-30T01:05:27.949Z,0
2018-12-30T01:06:29.327Z,0
2018-12-30T01:07:30.674Z,0
2018-12-30T01:08:32.022Z,0
2018-12-30T01:09:33.362Z,0
2018-12-30T01:10:34.748Z,0
2018-12-30T01:11:36.133Z,0
2018-12-30T01:12:37.509Z,0
2018-12-30T01:13:38.892Z,0
2018-12-30T01:14:40.269Z,0
2018-12-30T01:15:41.652Z,0
2018-12-30T01:16:43.031Z,0
2018-12-30T01:17:44.412Z,0
2018-12-30T01:18:45.758Z,0
2018-12-30T01:19:47.139Z,0
2018-12-30T01:20:48.521Z,0
2018-12-30T01:21:49.905Z,0
2018-12-30T01:22:51.284Z,0
2018-12-30T01:23:52.664Z,0
2018-12-30T01:24:54.046Z,0
2018-12-30T01:25:55.431Z,0
2018-12-30T01:26:56.811Z,0
2018-12-30T01:27:58.189Z,0
2018-12-30T01:28:59.532Z,0
2018-12-30T01:30:00.912Z,0
2018-12-30T01:31:02.290Z,0
2018-12-30T01:32:03.674Z,0
2018-12-30T01:33:05.057Z,0
2018-12-30T01:34:06.439Z,0
2018-12-30T01:35:07.821Z,0
2018-12-30T01:36:09.204Z,0
2018-12-30T01:37:10.583Z,0
2018-12-30T01:38:11.961Z,0
2018-12-30T01:39:13.306Z,0
2018-12-30T01:40:14.690Z,0
2018-12-30T01:41:16.071Z,0
2018-12-30T01:42:17.449Z,0
2018-12-30T01:43:18.822Z,0
2018-12-30T01:44:20.207Z,0
2018-12-30T01:45:21.593Z,0
2018-12-30T01:46:22.974Z,0
2018-12-30T01:47:24.359Z,0
2018-12-30T01:48:25.739Z,0
2018-12-30T01:49:27.116Z,0
2018-12-30T01:50:28.461Z,0
2018-12-30T01:51:33.165Z,0
2018-12-30T01:52:31.189Z,0
2018-12-30T01:53:32.656Z,0
2018-12-30T01:54:34.052Z,0
2018-12-30T01:55:35.436Z,0
2018-12-30T01:56:36.817Z,0
2018-12-30T01:57:38.201Z,0
2018-12-30T01:58:39.582Z,0
2018-12-30T01:59:40.963Z,0
2018-12-30T02:00:42.312Z,0
2018-12-30T02:01:43.692Z,0
2018-12-30T02:02:45.070Z,0
2018-12-30T02:03:46.449Z,0
2018-12-30T02:04:47.831Z,0
2018-12-30T02:05:49.217Z,0
2018-12-30T02:06:50.656Z,0
2018-12-30T02:07:51.945Z,0
2018-12-30T02:08:53.327Z,0
2018-12-30T02:09:54.709Z,0
2018-12-30T02:10:56.051Z,0
2018-12-30T02:11:57.433Z,0
2018-12-30T02:12:58.814Z,0
2018-12-30T02:14:00.193Z,0
2018-12-30T02:15:01.581Z,0
2018-12-30T02:16:02.966Z,0
2018-12-30T02:17:04.341Z,0
2018-12-30T02:18:05.726Z,0
2018-12-30T02:19:07.105Z,0
2018-12-30T02:20:08.486Z,0
2018-12-30T02:21:09.870Z,0
2018-12-30T02:22:11.214Z,0
2018-12-30T02:23:12.600Z,0
2018-12-30T02:24:13.980Z,0
2018-12-30T02:25:15.359Z,0
2018-12-30T02:26:16.740Z,0
2018-12-30T02:27:18.118Z,0
2018-12-30T02:28:19.501Z,0
2018-12-30T02:29:20.885Z,0
2018-12-30T02:30:22.269Z,0
2018-12-30T02:31:23.674Z,0
2018-12-30T02:32:25.055Z,0
2018-12-30T02:33:26.397Z,0
2018-12-30T02:34:27.775Z,0
2018-12-30T02:35:29.155Z,0
2018-12-30T02:36:30.541Z,0
2018-12-30T02:37:31.891Z,0
2018-12-30T02:38:33.263Z,0
2018-12-30T02:39:34.644Z,0
2018-12-30T02:40:36.024Z,0
2018-12-30T02:41:37.412Z,0
2018-12-30T02:42:38.789Z,0
2018-12-30T02:43:40.136Z,0
2018-12-30T02:44:41.513Z,0
2018-12-30T02:45:43.052Z,0
2018-12-30T02:46:44.524Z,0
2018-12-30T02:47:45.905Z,0
2018-12-30T02:48:47.288Z,0
2018-12-30T02:49:48.634Z,0
2018-12-30T02:50:50.014Z,0
2018-12-30T02:51:51.401Z,0
2018-12-30T02:52:52.784Z,0
2018-12-30T02:53:54.161Z,0
2018-12-30T02:54:55.505Z,0
2018-12-30T02:55:56.888Z,0
2018-12-30T02:56:58.269Z,0
2018-12-30T02:57:59.651Z,0
2018-12-30T02:59:01.041Z,0
2018-12-30T03:00:02.427Z,0
2018-12-30T03:01:03.810Z,0
2018-12-30T03:02:05.192Z,0
2018-12-30T03:03:06.570Z,0
2018-12-30T03:04:08.055Z,0
2018-12-30T03:05:09.441Z,0
2018-12-30T03:06:10.790Z,0
2018-12-30T03:07:12.249Z,0
2018-12-30T03:08:13.613Z,0
2018-12-30T03:09:14.995Z,0
2018-12-30T03:10:16.375Z,0
2018-12-30T03:11:17.756Z,0
2018-12-30T03:12:19.139Z,0
2018-12-30T03:13:20.539Z,0
2018-12-30T03:14:21.917Z,0
2018-12-30T03:15:23.297Z,0
2018-12-30T03:16:24.676Z,0
2018-12-30T03:17:26.055Z,0
2018-12-30T03:18:27.402Z,0
2018-12-30T03:19:28.789Z,0
2018-12-30T03:20:30.172Z,0
2018-12-30T03:21:31.582Z,0
2018-12-30T03:22:32.961Z,0
2018-12-30T03:23:34.346Z,0
2018-12-30T03:24:35.729Z,0
2018-12-30T03:25:37.109Z,0
2018-12-30T03:26:38.492Z,0
2018-12-30T03:27:39.874Z,0
2018-12-30T03:28:41.255Z,0
2018-12-30T03:29:42.635Z,0
2018-12-30T03:30:44.017Z,0
2018-12-30T03:31:45.399Z,0
2018-12-30T03:32:46.872Z,0
2018-12-30T03:33:48.243Z,0
2018-12-30T03:34:49.622Z,0
2018-12-30T03:35:51.005Z,0
2018-12-30T03:36:52.523Z,0
2018-12-30T03:37:53.946Z,0
2018-12-30T03:38:55.325Z,0
2018-12-30T03:39:56.765Z,0
2018-12-30T03:40:58.086Z,0
2018-12-30T03:41:59.470Z,0
2018-12-30T03:43:00.852Z,0
2018-12-30T03:44:02.227Z,0
2018-12-30T03:45:03.607Z,0
2018-12-30T03:46:04.988Z,0
2018-12-30T03:47:06.371Z,0
2018-12-30T03:48:07.752Z,0
2018-12-30T03:49:09.132Z,0
2018-12-30T03:50:10.512Z,0
2018-12-30T03:51:11.918Z,0
2018-12-30T03:52:13.294Z,0
2018-12-30T03:53:14.672Z,0
2018-12-30T03:54:16.060Z,0
2018-12-30T03:55:17.438Z,0
2018-12-30T03:56:18.826Z,0
2018-12-30T03:57:20.202Z,0
2018-12-30T03:58:21.585Z,0
2018-12-30T03:59:22.966Z,0
2018-12-30T04:00:24.352Z,0
2018-12-30T04:01:25.731Z,0
2018-12-30T04:02:27.115Z,0
2018-12-30T04:03:28.495Z,0
2018-12-30T04:04:29.874Z,0
2018-12-30T04:05:31.253Z,0
2018-12-30T04:06:32.645Z,0
2018-12-30T04:07:34.031Z,0
2018-12-30T04:08:35.410Z,0
2018-12-30T04:09:36.792Z,0
2018-12-30T04:10:38.178Z,0
2018-12-30T04:11:39.556Z,0
2018-12-30T04:12:40.939Z,0
2018-12-30T04:13:42.316Z,0
2018-12-30T04:14:43.698Z,0
2018-12-30T04:15:45.081Z,0
2018-12-30T04:16:46.463Z,0
2018-12-30T04:17:47.843Z,0
2018-12-30T04:18:49.225Z,0
2018-12-30T04:19:50.606Z,0
2018-12-30T04:20:51.991Z,0
2018-12-30T04:21:53.375Z,0
2018-12-30T04:22:54.790Z,0
2018-12-30T04:23:56.139Z,0
2018-12-30T04:24:57.524Z,0
2018-12-30T04:25:58.902Z,0
2018-12-30T04:27:00.284Z,0
2018-12-30T04:28:01.722Z,0
2018-12-30T04:29:03.126Z,0
2018-12-30T04:30:04.509Z,0
2018-12-30T04:31:05.895Z,0
2018-12-30T04:32:07.277Z,0
2018-12-30T04:33:08.656Z,0
2018-12-30T04:34:10.040Z,0
2018-12-30T04:35:11.421Z,0
2018-12-30T04:36:12.802Z,0
2018-12-30T04:37:14.181Z,0
2018-12-30T04:38:15.561Z,0
2018-12-30T04:39:16.943Z,0
2018-12-30T04:40:18.323Z,0
2018-12-30T04:41:19.761Z,0
2018-12-30T04:42:21.094Z,0
2018-12-30T04:43:22.482Z,0
2018-12-30T04:44:23.862Z,0
2018-12-30T04:45:25.247Z,0
2018-12-30T04:46:26.638Z,0
2018-12-30T04:47:28.020Z,0
2018-12-30T04:48:29.407Z,0
2018-12-30T04:49:30.789Z,0
2018-12-30T04:50:32.172Z,0
2018-12-30T04:51:33.553Z,0
2018-12-30T04:52:34.933Z,0
2018-12-30T04:53:36.318Z,0
2018-12-30T04:54:37.694Z,0
2018-12-30T04:55:39.076Z,0
2018-12-30T04:56:40.471Z,0
2018-12-30T04:57:41.852Z,0
2018-12-30T04:58:43.238Z,0
2018-12-30T04:59:44.623Z,0
2018-12-30T05:00:46.007Z,0
2018-12-30T05:01:47.391Z,0
2018-12-30T05:02:48.770Z,0
2018-12-30T05:03:50.150Z,0
2018-12-30T05:04:51.534Z,0
2018-12-30T05:05:52.912Z,0
2018-12-30T05:06:54.299Z,0
2018-12-30T05:07:55.679Z,0
2018-12-30T05:08:57.061Z,0
2018-12-30T05:09:58.443Z,0
2018-12-30T05:10:59.819Z,0
2018-12-30T05:12:01.202Z,0
2018-12-30T05:13:02.591Z,0
2018-12-30T05:14:03.967Z,0
2018-12-30T05:15:05.352Z,0
2018-12-30T05:16:06.730Z,0
2018-12-30T05:17:08.112Z,0
2018-12-30T05:18:09.493Z,0
2018-12-30T05:19:10.882Z,0
2018-12-30T05:20:12.386Z,0
2018-12-30T05:21:13.768Z,0
2018-12-30T05:22:15.150Z,0
2018-12-30T05:23:16.533Z,0
2018-12-30T05:24:17.911Z,0
2018-12-30T05:25:19.295Z,0
2018-12-30T05:26:20.676Z,0
2018-12-30T05:27:22.058Z,0
2018-12-30T05:28:23.442Z,0
2018-12-30T05:29:24.821Z,0
2018-12-30T05:30:26.204Z,0
2018-12-30T05:31:27.583Z,0
2018-12-30T05:32:28.962Z,0
2018-12-30T05:33:30.340Z,0
2018-12-30T05:34:31.720Z,0
2018-12-30T05:35:33.117Z,0
2018-12-30T05:36:34.492Z,0
2018-12-30T05:37:35.873Z,0
2018-12-30T05:38:37.255Z,0
2018-12-30T05:39:38.635Z,0
2018-12-30T05:40:40.016Z,0
2018-12-30T05:41:41.397Z,0
2018-12-30T05:42:42.778Z,0
2018-12-30T05:43:44.163Z,0
2018-12-30T05:44:45.543Z,0
2018-12-30T05:45:46.940Z,0
2018-12-30T05:46:48.333Z,0
2018-12-30T05:47:49.705Z,0
2018-12-30T05:48:51.089Z,0
2018-12-30T05:49:52.469Z,0
2018-12-30T05:50:53.853Z,0
2018-12-30T05:51:55.234Z,0
2018-12-30T05:52:56.615Z,0
2018-12-30T05:53:57.996Z,0
2018-12-30T05:54:59.376Z,0
2018-12-30T05:56:00.759Z,0
2018-12-30T05:57:02.142Z,0
2018-12-30T05:58:03.525Z,0
2018-12-30T05:59:04.905Z,0
2018-12-30T06:00:06.291Z,0
2018-12-30T06:01:07.669Z,0
2018-12-30T06:02:09.048Z,0
2018-12-30T06:03:10.432Z,0
2018-12-30T06:04:11.821Z,0
2018-12-30T06:05:13.199Z,0
2018-12-30T06:06:14.578Z,0
2018-12-30T06:07:15.962Z,0
2018-12-30T06:08:17.343Z,0
2018-12-30T06:09:18.726Z,0
2018-12-30T06:10:20.224Z,0
2018-12-30T06:11:21.679Z,0
2018-12-30T06:12:23.061Z,0
2018-12-30T06:13:24.467Z,0
2018-12-30T06:14:25.846Z,0
2018-12-30T06:15:27.229Z,0
2018-12-30T06:16:28.611Z,0
2018-12-30T06:17:29.994Z,0
2018-12-30T06:18:31.445Z,0
2018-12-30T06:19:32.762Z,0
2018-12-30T06:20:34.144Z,0
2018-12-30T06:21:35.525Z,0
2018-12-30T06:22:36.909Z,0
2018-12-30T06:23:38.289Z,0
2018-12-30T06:24:39.679Z,0
2018-12-30T06:25:41.059Z,0
2018-12-30T06:26:42.441Z,0
2018-12-30T06:27:43.820Z,0
2018-12-30T06:28:45.200Z,0
2018-12-30T06:29:46.616Z,0
2018-12-30T06:30:48.004Z,0
2018-12-30T06:31:49.385Z,0
2018-12-30T06:32:50.773Z,0
2018-12-30T06:33:52.149Z,0
2018-12-30T06:34:53.533Z,0
2018-12-30T06:35:54.913Z,0
2018-12-30T06:36:56.294Z,0
2018-12-30T06:37:57.676Z,0
2018-12-30T06:38:59.057Z,0
2018-12-30T06:40:00.440Z,0
2018-12-30T06:41:01.820Z,0
2018-12-30T06:42:03.198Z,0
2018-12-30T06:43:04.580Z,0
2018-12-30T06:44:05.962Z,0
2018-12-30T06:45:07.342Z,0
2018-12-30T06:46:08.725Z,0
2018-12-30T06:47:10.109Z,0
2018-12-30T06:48:11.493Z,0
2018-12-30T06:49:12.873Z,0
2018-12-30T06:50:14.251Z,0
2018-12-30T06:51:15.633Z,0
2018-12-30T06:52:17.014Z,0
2018-12-30T06:53:18.396Z,0
2018-12-30T06:54:19.779Z,0
2018-12-30T06:55:21.157Z,0
2018-12-30T06:56:22.539Z,0
2018-12-30T06:57:23.918Z,0
2018-12-30T06:58:25.295Z,0
2018-12-30T06:59:26.681Z,0
2018-12-30T07:00:28.058Z,0
2018-12-30T07:01:29.559Z,0
2018-12-30T07:02:30.990Z,0
2018-12-30T07:03:32.370Z,0
2018-12-30T07:04:33.749Z,0
2018-12-30T07:05:35.129Z,0
2018-12-30T07:06:38.331Z,0
2018-12-30T07:07:37.857Z,0
2018-12-30T07:08:39.242Z,0
2018-12-30T07:09:40.630Z,0
2018-12-30T07:10:42.009Z,0
2018-12-30T07:11:43.389Z,0
2018-12-30T07:12:44.766Z,0
2018-12-30T07:13:46.150Z,0
2018-12-30T07:14:47.530Z,0
2018-12-30T07:15:48.914Z,0
2018-12-30T07:16:50.298Z,0
2018-12-30T07:17:51.672Z,0
2018-12-30T07:18:53.053Z,0
2018-12-30T07:19:54.431Z,0
2018-12-30T07:20:55.813Z,0
2018-12-30T07:21:57.194Z,0
2018-12-30T07:23:05.617Z,0
2018-12-30T07:23:59.924Z,0
2018-12-30T07:25:01.303Z,0
2018-12-30T07:26:02.689Z,0
2018-12-30T07:27:04.070Z,0
2018-12-30T07:28:05.451Z,0
2018-12-30T07:29:06.832Z,0
2018-12-30T07:30:08.216Z,0
2018-12-30T07:31:09.602Z,0
2018-12-30T07:32:10.980Z,0
2018-12-30T07:33:12.359Z,0
2018-12-30T07:34:13.741Z,0
2018-12-30T07:35:15.119Z,0
2018-12-30T07:36:16.503Z,0
2018-12-30T07:37:17.906Z,0
2018-12-30T07:38:19.287Z,0
2018-12-30T07:39:20.668Z,0
2018-12-30T07:40:22.047Z,0
2018-12-30T07:41:23.428Z,0
2018-12-30T07:42:24.816Z,0
2018-12-30T07:43:26.162Z,0
2018-12-30T07:44:27.545Z,0
2018-12-30T07:45:28.928Z,0
2018-12-30T07:46:30.309Z,0
2018-12-30T07:47:31.694Z,5
2018-12-30T07:48:33.075Z,5
2018-12-30T07:49:34.459Z,5
2018-12-30T07:50:35.842Z,5
2018-12-30T07:51:37.228Z,5
2018-12-30T07:52:38.619Z,5
2018-12-30T07:53:40.106Z,5
2018-12-30T07:54:41.506Z,0
2018-12-30T07:55:42.889Z,5
2018-12-30T07:56:44.279Z,5
2018-12-30T07:57:45.658Z,5
2018-12-30T07:58:47.042Z,5
2018-12-30T07:59:48.427Z,11
2018-12-30T08:00:49.808Z,11
2018-12-30T08:01:51.191Z,11
2018-12-30T08:02:52.575Z,11
2018-12-30T08:03:53.962Z,11
2018-12-30T08:04:55.345Z,11
2018-12-30T08:05:56.733Z,11
2018-12-30T08:06:58.115Z,11
2018-12-30T08:07:59.502Z,16
2018-12-30T08:09:00.888Z,16
2018-12-30T08:10:02.272Z,16
2018-12-30T08:11:03.660Z,16
2018-12-30T08:12:05.047Z,16
2018-12-30T08:13:06.431Z,16
2018-12-30T08:14:07.821Z,16
2018-12-30T08:15:09.205Z,16
2018-12-30T08:16:10.590Z,16
2018-12-30T08:17:11.977Z,16
2018-12-30T08:18:13.357Z,16
2018-12-30T08:19:14.741Z,16
2018-12-30T08:20:16.129Z,16
2018-12-30T08:21:17.536Z,16
2018-12-30T08:22:18.917Z,22
2018-12-30T08:23:21.813Z,16
2018-12-30T08:24:21.650Z,22
2018-12-30T08:25:23.032Z,22
2018-12-30T08:26:24.417Z,22
2018-12-30T08:27:25.803Z,16
2018-12-30T08:28:27.189Z,16
2018-12-30T08:29:28.571Z,22
2018-12-30T08:30:29.955Z,28
2018-12-30T08:31:31.339Z,28
2018-12-30T08:32:32.726Z,28
2018-12-30T08:33:34.109Z,28
2018-12-30T08:34:35.497Z,33
2018-12-30T08:35:36.882Z,28
2018-12-30T08:36:38.264Z,28
2018-12-30T08:37:39.645Z,28
2018-12-30T08:38:41.028Z,28
2018-12-30T08:39:42.417Z,28
2018-12-30T08:40:43.799Z,28
2018-12-30T08:41:45.312Z,22
2018-12-30T08:42:46.701Z,16
2018-12-30T08:43:48.162Z,16
2018-12-30T08:44:49.666Z,16
2018-12-30T08:45:51.047Z,16
2018-12-30T08:46:52.434Z,22
2018-12-30T08:47:53.826Z,22
2018-12-30T08:48:55.213Z,22
2018-12-30T08:49:56.599Z,28
2018-12-30T08:50:58.103Z,28
2018-12-30T08:51:59.490Z,28
2018-12-30T08:53:00.872Z,28
2018-12-30T08:54:02.257Z,33
2018-12-30T08:55:03.642Z,39
2018-12-30T08:56:05.027Z,45
2018-12-30T08:57:06.418Z,45
2018-12-30T08:58:07.799Z,45
2018-12-30T08:59:09.182Z,45
2018-12-30T09:00:10.564Z,50
2018-12-30T09:01:11.950Z,50
2018-12-30T09:02:13.335Z,56
2018-12-30T09:03:14.720Z,56
2018-12-30T09:04:16.120Z,39
2018-12-30T09:05:17.484Z,45
2018-12-30T09:06:18.870Z,56
2018-12-30T09:07:20.254Z,61
2018-12-30T09:08:21.642Z,67
2018-12-30T09:09:23.027Z,67
2018-12-30T09:10:24.411Z,73
2018-12-30T09:11:25.794Z,61
2018-12-30T09:12:27.177Z,67
2018-12-30T09:13:28.560Z,67
2018-12-30T09:14:29.945Z,67
2018-12-30T09:15:31.334Z,67
2018-12-30T09:16:32.726Z,67
2018-12-30T09:17:34.106Z,73
2018-12-30T09:18:35.494Z,78
2018-12-30T09:19:36.878Z,84
2018-12-30T09:20:38.261Z,90
2018-12-30T09:21:39.646Z,106
2018-12-30T09:22:41.035Z,106
2018-12-30T09:23:42.426Z,90
2018-12-30T09:24:43.806Z,95
2018-12-30T09:25:45.336Z,90
2018-12-30T09:26:46.723Z,84
2018-12-30T09:27:48.109Z,78
2018-12-30T09:28:49.495Z,61
2018-12-30T09:29:50.884Z,61
2018-12-30T09:30:52.267Z,50
2018-12-30T09:31:53.660Z,39
2018-12-30T09:32:55.042Z,39
2018-12-30T09:33:56.464Z,39
2018-12-30T09:34:57.950Z,45
2018-12-30T09:35:59.332Z,45
2018-12-30T09:37:00.719Z,39
2018-12-30T09:38:02.102Z,33
2018-12-30T09:39:03.491Z,28
2018-12-30T09:40:04.911Z,28
2018-12-30T09:41:06.350Z,28
2018-12-30T09:42:07.727Z,28
2018-12-30T09:43:09.110Z,28
2018-12-30T09:44:10.499Z,39
2018-12-30T09:45:11.886Z,45
2018-12-30T09:46:13.287Z,45
2018-12-30T09:47:14.688Z,39
2018-12-30T09:48:16.076Z,39
2018-12-30T09:49:17.459Z,33
2018-12-30T09:50:18.893Z,28
2018-12-30T09:51:20.277Z,28
2018-12-30T09:52:21.692Z,22
2018-12-30T09:53:23.080Z,16
2018-12-30T09:54:24.471Z,22
2018-12-30T09:55:25.853Z,22
2018-12-30T09:56:27.236Z,28
2018-12-30T09:57:28.620Z,28
2018-12-30T09:58:30.004Z,28
2018-12-30T09:59:31.398Z,33
2018-12-30T10:00:32.783Z,39
2018-12-30T10:01:34.168Z,45
2018-12-30T10:02:35.559Z,45
2018-12-30T10:03:36.974Z,56
2018-12-30T10:04:38.360Z,56
2018-12-30T10:05:39.744Z,56
2018-12-30T10:06:41.129Z,56
2018-12-30T10:07:42.516Z,50
2018-12-30T10:08:43.903Z,45
2018-12-30T10:09:45.293Z,45
2018-12-30T10:10:46.676Z,45
2018-12-30T10:11:48.061Z,45
2018-12-30T10:12:49.459Z,45
2018-12-30T10:13:50.844Z,39
2018-12-30T10:14:52.232Z,39
2018-12-30T10:15:53.614Z,39
2018-12-30T10:16:54.995Z,39
2018-12-30T10:17:56.378Z,39
2018-12-30T10:18:57.760Z,39
2018-12-30T10:19:59.146Z,33
2018-12-30T10:21:00.532Z,33
2018-12-30T10:22:01.921Z,33
2018-12-30T10:23:03.305Z,39
2018-12-30T10:24:04.686Z,33
2018-12-30T10:25:06.118Z,33
2018-12-30T10:26:07.525Z,33
2018-12-30T10:27:08.912Z,33
2018-12-30T10:28:10.306Z,33
2018-12-30T10:29:11.694Z,33
2018-12-30T10:30:13.082Z,33
2018-12-30T10:31:14.464Z,39
2018-12-30T10:32:15.853Z,39
2018-12-30T10:33:17.235Z,45
2018-12-30T10:34:18.621Z,45
2018-12-30T10:35:20.008Z,50
2018-12-30T10:36:21.395Z,45
2018-12-30T10:37:22.784Z,45
2018-12-30T10:38:24.167Z,45
2018-12-30T10:39:25.551Z,39
2018-12-30T10:40:26.938Z,39
2018-12-30T10:41:28.326Z,33
2018-12-30T10:42:29.711Z,33
2018-12-30T10:43:31.098Z,33
2018-12-30T10:44:32.491Z,39
2018-12-30T10:45:33.876Z,39
2018-12-30T10:46:35.258Z,45
2018-12-30T10:47:36.646Z,39
2018-12-30T10:48:38.033Z,39
2018-12-30T10:49:39.420Z,39
2018-12-30T10:50:40.805Z,39
2018-12-30T10:51:42.190Z,33
2018-12-30T10:52:43.574Z,39
2018-12-30T10:53:44.958Z,45
2018-12-30T10:54:46.364Z,50
2018-12-30T10:55:47.750Z,56
2018-12-30T10:56:49.132Z,50
2018-12-30T10:57:50.520Z,50
2018-12-30T10:58:51.906Z,45
2018-12-30T10:59:53.290Z,45
2018-12-30T11:00:54.677Z,50
2018-12-30T11:01:56.059Z,56
2018-12-30T11:02:57.443Z,61
2018-12-30T11:03:58.827Z,61
2018-12-30T11:05:00.269Z,67
2018-12-30T11:06:01.602Z,61
2018-12-30T11:07:02.987Z,56
2018-12-30T11:08:04.373Z,56
2018-12-30T11:09:05.762Z,61
2018-12-30T11:10:07.152Z,67
2018-12-30T11:11:08.540Z,73
2018-12-30T11:12:09.924Z,84
2018-12-30T11:13:11.314Z,95
2018-12-30T11:14:12.700Z,101
2018-12-30T11:15:14.181Z,101
2018-12-30T11:16:15.666Z,112
2018-12-30T11:17:17.056Z,129
2018-12-30T11:18:18.443Z,95
2018-12-30T11:19:19.831Z,95
2018-12-30T11:20:21.224Z,90
2018-12-30T11:21:22.609Z,73
2018-12-30T11:22:23.993Z,61
2018-12-30T11:23:25.385Z,56
2018-12-30T11:24:26.766Z,73
2018-12-30T11:25:28.158Z,101
2018-12-30T11:26:29.551Z,123
2018-12-30T11:27:30.939Z,151
2018-12-30T11:28:32.322Z,123
2018-12-30T11:29:33.709Z,112
2018-12-30T11:30:35.096Z,118
2018-12-30T11:31:36.484Z,112
2018-12-30T11:32:37.872Z,95
2018-12-30T11:33:39.259Z,90
2018-12-30T11:34:40.653Z,78
2018-12-30T11:35:42.039Z,84
2018-12-30T11:36:43.423Z,90
2018-12-30T11:37:44.837Z,101
2018-12-30T11:38:46.219Z,112
2018-12-30T11:39:47.606Z,90
2018-12-30T11:40:48.994Z,78
2018-12-30T11:41:50.385Z,67
2018-12-30T11:42:51.769Z,61
2018-12-30T11:43:53.160Z,56
2018-12-30T11:44:54.553Z,50
2018-12-30T11:45:56.008Z,50
2018-12-30T11:46:59.783Z,50
2018-12-30T11:48:01.171Z,45
2018-12-30T11:49:02.560Z,45
2018-12-30T11:50:03.944Z,45
2018-12-30T11:51:05.325Z,45
2018-12-30T11:52:06.714Z,50
2018-12-30T11:53:08.106Z,50
2018-12-30T11:54:16.241Z,56
2018-12-30T11:55:10.840Z,56
2018-12-30T11:56:12.231Z,50
2018-12-30T11:57:13.616Z,45
2018-12-30T11:58:15.006Z,45
2018-12-30T11:59:16.390Z,39
2018-12-30T12:00:17.775Z,39
2018-12-30T12:01:19.358Z,39
2018-12-30T12:02:24.004Z,39
2018-12-30T12:03:22.139Z,45
2018-12-30T12:04:23.519Z,45
2018-12-30T12:05:24.903Z,39
2018-12-30T12:06:26.287Z,39
2018-12-30T12:07:27.672Z,39
2018-12-30T12:08:29.058Z,39
2018-12-30T12:09:30.442Z,39
2018-12-30T12:10:31.835Z,33
2018-12-30T12:11:33.222Z,33
2018-12-30T12:12:35.574Z,33
2018-12-30T12:13:35.950Z,39
2018-12-30T12:14:37.332Z,39
2018-12-30T12:15:38.715Z,45
2018-12-30T12:16:40.099Z,45
2018-12-30T12:17:41.491Z,45
2018-12-30T12:18:42.877Z,45
2018-12-30T12:19:44.283Z,45
2018-12-30T12:20:45.682Z,45
2018-12-30T12:21:47.120Z,45
2018-12-30T12:22:48.452Z,45
2018-12-30T12:23:49.839Z,39
2018-12-30T12:24:51.220Z,33
2018-12-30T12:25:52.606Z,33
2018-12-30T12:26:53.989Z,33
2018-12-30T12:27:55.375Z,33
2018-12-30T12:28:56.759Z,28
2018-12-30T12:29:58.145Z,28
2018-12-30T12:30:59.533Z,28
2018-12-30T12:32:00.917Z,28
2018-12-30T12:33:02.300Z,28
2018-12-30T12:34:03.701Z,33
2018-12-30T12:35:05.087Z,33
2018-12-30T12:36:06.469Z,33
2018-12-30T12:37:07.855Z,33
2018-12-30T12:38:09.243Z,33
2018-12-30T12:39:10.630Z,33
2018-12-30T12:40:12.134Z,33
2018-12-30T12:41:13.540Z,33
2018-12-30T12:42:14.925Z,33
2018-12-30T12:43:16.313Z,33
2018-12-30T12:44:17.692Z,33
2018-12-30T12:45:19.077Z,33
2018-12-30T12:46:20.462Z,33
2018-12-30T12:47:21.848Z,33
2018-12-30T12:48:23.234Z,28
2018-12-30T12:49:24.621Z,28
2018-12-30T12:50:26.004Z,33
2018-12-30T12:51:27.392Z,33
2018-12-30T12:52:28.871Z,33
2018-12-30T12:53:30.355Z,33
2018-12-30T12:54:32.281Z,33
2018-12-30T12:55:33.242Z,33
2018-12-30T12:56:34.497Z,33
2018-12-30T12:57:35.886Z,33
2018-12-30T12:58:37.347Z,33
2018-12-30T12:59:38.743Z,39
2018-12-30T13:00:40.168Z,39
2018-12-30T13:01:41.583Z,39
2018-12-30T13:02:42.968Z,33
2018-12-30T13:03:44.350Z,33
2018-12-30T13:04:45.738Z,33
2018-12-30T13:05:47.119Z,33
2018-12-30T13:06:48.506Z,33
2018-12-30T13:07:49.891Z,33
2018-12-30T13:08:51.275Z,33
2018-12-30T13:09:52.695Z,33
2018-12-30T13:10:54.083Z,39
2018-12-30T13:11:55.468Z,39
2018-12-30T13:12:56.851Z,33
2018-12-30T13:13:58.239Z,33
2018-12-30T13:14:59.632Z,33
2018-12-30T13:16:03.436Z,28
2018-12-30T13:17:02.370Z,28
2018-12-30T13:18:03.774Z,28
2018-12-30T13:19:05.159Z,28
2018-12-30T13:20:06.542Z,28
2018-12-30T13:21:07.927Z,28
2018-12-30T13:22:09.355Z,28
2018-12-30T13:23:10.734Z,28
2018-12-30T13:24:12.121Z,28
2018-12-30T13:25:13.503Z,28
2018-12-30T13:26:14.892Z,33
2018-12-30T13:27:16.271Z,33
2018-12-30T13:28:17.658Z,33
2018-12-30T13:29:19.046Z,33
2018-12-30T13:30:20.430Z,33
2018-12-30T13:31:21.812Z,33
2018-12-30T13:32:23.200Z,33
2018-12-30T13:33:24.586Z,33
2018-12-30T13:34:25.976Z,33
2018-12-30T13:35:27.360Z,33
2018-12-30T13:36:28.751Z,33
2018-12-30T13:37:30.136Z,33
2018-12-30T13:38:31.531Z,33
2018-12-30T13:39:32.956Z,33
2018-12-30T13:40:34.339Z,39
2018-12-30T13:41:35.735Z,39
2018-12-30T13:42:37.368Z,39
2018-12-30T13:43:38.769Z,39
2018-12-30T13:44:40.153Z,39
2018-12-30T13:45:41.540Z,33
2018-12-30T13:46:42.924Z,28
2018-12-30T13:47:44.309Z,28
2018-12-30T13:48:45.693Z,22
2018-12-30T13:49:47.079Z,22
2018-12-30T13:50:48.467Z,22
2018-12-30T13:51:49.851Z,22
2018-12-30T13:52:51.239Z,22
2018-12-30T13:53:52.635Z,28
2018-12-30T13:54:54.028Z,22
2018-12-30T13:55:55.411Z,22
2018-12-30T13:56:56.803Z,22
2018-12-30T13:57:58.188Z,22
2018-12-30T13:58:59.574Z,22
2018-12-30T14:00:00.989Z,22
2018-12-30T14:01:02.373Z,22
2018-12-30T14:02:03.756Z,22
2018-12-30T14:03:05.137Z,22
2018-12-30T14:04:06.526Z,22
2018-12-30T14:05:07.913Z,22
2018-12-30T14:06:09.294Z,22
2018-12-30T14:07:10.680Z,16
2018-12-30T14:08:12.064Z,16
2018-12-30T14:09:13.466Z,11
2018-12-30T14:10:14.852Z,11
2018-12-30T14:11:16.241Z,11
2018-12-30T14:12:17.634Z,11
2018-12-30T14:13:19.014Z,11
2018-12-30T14:14:20.396Z,5
2018-12-30T14:15:21.794Z,5
2018-12-30T14:16:23.221Z,5
2018-12-30T14:17:24.625Z,5
2018-12-30T14:18:26.011Z,5
2018-12-30T14:19:27.397Z,5
2018-12-30T14:20:28.781Z,5
2018-12-30T14:21:30.154Z,5
2018-12-30T14:22:31.545Z,11
2018-12-30T14:23:32.957Z,11
2018-12-30T14:24:34.360Z,11
2018-12-30T14:25:35.749Z,11
2018-12-30T14:26:37.155Z,11
2018-12-30T14:27:38.578Z,11
2018-12-30T14:28:39.960Z,11
2018-12-30T14:29:41.346Z,11
2018-12-30T14:30:42.729Z,11
2018-12-30T14:31:44.118Z,11
2018-12-30T14:32:45.727Z,11
2018-12-30T14:33:47.191Z,5
2018-12-30T14:34:48.577Z,5
2018-12-30T14:35:49.963Z,5
2018-12-30T14:36:51.346Z,5
2018-12-30T14:37:52.769Z,5
2018-12-30T14:38:54.154Z,5
2018-12-30T14:39:55.536Z,5
2018-12-30T14:40:56.923Z,5
2018-12-30T14:41:58.306Z,5
2018-12-30T14:42:59.689Z,5
2018-12-30T14:44:01.072Z,5
2018-12-30T14:45:02.455Z,5
2018-12-30T14:46:03.842Z,5
2018-12-30T14:47:05.231Z,5
2018-12-30T14:48:06.619Z,5
2018-12-30T14:49:08.002Z,5
2018-12-30T14:50:09.384Z,5
2018-12-30T14:51:10.766Z,11
2018-12-30T14:52:12.149Z,11
2018-12-30T14:53:18.954Z,11